createdAt,value
2023-05-12T00:02:13.571Z,4.65
2023-05-12T00:04:40.416Z,4.10
2023-05-12T00:09:34.126Z,4.75
2023-05-12T00:12:02.369Z,4.35
2023-05-12T00:14:29.225Z,4.28
2023-05-12T00:16:55.733Z,4.22
2023-05-12T00:19:22.255Z,4.38
2023-05-12T00:21:49.089Z,4.20
2023-05-12T00:24:15.608Z,4.47
2023-05-12T00:26:42.290Z,4.50
2023-05-12T00:29:08.752Z,4.13
2023-05-12T00:31:35.348Z,4.45
2023-05-12T00:34:02.395Z,4.47
2023-05-12T00:38:55.697Z,4.32
2023-05-12T00:41:22.265Z,4.15
2023-05-12T00:43:48.982Z,4.35
2023-05-12T00:46:15.809Z,4.35
2023-05-12T00:48:42.691Z,4.75
2023-05-12T00:51:10.104Z,4.40
2023-05-12T00:53:48.297Z,4.35
2023-05-12T00:56:19.792Z,4.68
2023-05-12T00:58:46.635Z,4.28
2023-05-12T01:01:13.470Z,4.28
2023-05-12T01:03:40.268Z,4.60
2023-05-12T01:06:14.614Z,5.05
2023-05-12T01:08:41.182Z,4.28
2023-05-12T01:11:08.007Z,4.80
2023-05-12T01:13:34.746Z,4.88
2023-05-12T01:16:02.870Z,4.50
2023-05-12T01:18:31.862Z,4.55
2023-05-12T01:21:00.549Z,4.75
2023-05-12T01:23:33.888Z,4.93
2023-05-12T01:26:07.265Z,5.00
2023-05-12T01:28:35.543Z,4.25
2023-05-12T01:31:03.642Z,4.70
2023-05-12T01:33:30.139Z,4.50
2023-05-12T01:35:56.841Z,4.72
2023-05-12T01:38:24.878Z,4.85
2023-05-12T01:40:51.594Z,4.63
2023-05-12T01:43:18.945Z,5.03
2023-05-12T01:45:49.106Z,4.45
2023-05-12T01:48:15.716Z,4.90
2023-05-12T01:50:42.138Z,4.55
2023-05-12T01:53:08.874Z,4.80
2023-05-12T01:55:35.332Z,4.18
2023-05-12T01:58:01.848Z,4.70
2023-05-12T02:00:31.369Z,4.88
2023-05-12T02:02:58.112Z,4.63
2023-05-12T02:05:24.928Z,4.18
2023-05-12T02:07:51.778Z,4.57
2023-05-12T02:10:18.675Z,4.20
2023-05-12T02:12:45.675Z,5.25
2023-05-12T02:15:12.167Z,4.78
2023-05-12T02:17:38.903Z,4.93
2023-05-12T02:20:06.091Z,4.95
2023-05-12T02:24:59.365Z,4.43
2023-05-12T02:27:25.938Z,4.97
2023-05-12T02:29:52.789Z,5.07
2023-05-12T02:32:19.531Z,4.88
2023-05-12T02:34:48.493Z,4.47
2023-05-12T02:37:15.248Z,4.88
2023-05-12T02:39:41.724Z,5.07
2023-05-12T02:42:08.660Z,4.60
2023-05-12T02:44:35.301Z,4.72
2023-05-12T02:47:01.867Z,4.85
2023-05-12T02:49:28.605Z,4.95
2023-05-12T02:51:55.353Z,4.55
2023-05-12T02:54:21.810Z,4.97
2023-05-12T02:56:49.413Z,5.20
2023-05-12T02:59:16.112Z,4.60
2023-05-12T03:01:42.692Z,4.55
2023-05-12T03:04:09.381Z,4.50
2023-05-12T03:06:36.168Z,4.70
2023-05-12T03:09:02.973Z,4.70
2023-05-12T03:11:29.829Z,5.03
2023-05-12T03:13:56.381Z,4.82
2023-05-12T03:16:22.948Z,5.10
2023-05-12T03:18:49.702Z,5.45
2023-05-12T03:21:16.276Z,5.05
2023-05-12T03:23:43.205Z,4.90
2023-05-12T03:26:10.353Z,4.75
2023-05-12T03:31:03.658Z,4.88
2023-05-12T03:33:30.815Z,5.07
2023-05-12T03:35:57.557Z,5.03
2023-05-12T03:38:24.251Z,4.57
2023-05-12T03:40:50.697Z,4.88
2023-05-12T03:43:17.440Z,5.10
2023-05-12T03:45:44.259Z,4.55
2023-05-12T03:48:10.997Z,4.65
2023-05-12T03:50:37.485Z,5.38
2023-05-12T03:53:04.159Z,4.97
2023-05-12T03:55:30.661Z,4.88
2023-05-12T03:57:57.353Z,5.20
2023-05-12T04:00:24.211Z,5.53
2023-05-12T04:02:50.743Z,4.72
2023-05-12T04:05:17.790Z,4.80
2023-05-12T04:07:44.757Z,5.00
2023-05-12T04:10:11.581Z,5.20
2023-05-12T04:12:38.318Z,4.60
2023-05-12T04:15:05.938Z,4.55
2023-05-12T04:17:32.809Z,4.93
2023-05-12T04:19:59.862Z,4.57
2023-05-12T04:22:26.970Z,4.60
2023-05-12T04:27:22.910Z,5.13
2023-05-12T04:29:49.423Z,5.25
2023-05-12T04:32:16.179Z,5.45
2023-05-12T04:34:42.946Z,5.05
2023-05-12T04:37:09.468Z,4.88
2023-05-12T04:39:37.792Z,7.00
2023-05-12T04:42:04.514Z,5.72
2023-05-12T04:44:30.957Z,5.10
2023-05-12T04:46:57.452Z,4.95
2023-05-12T04:49:24.206Z,5.35
2023-05-12T04:51:50.634Z,4.78
2023-05-12T04:54:17.165Z,5.18
2023-05-12T04:56:47.138Z,5.25
2023-05-12T04:59:14.234Z,5.13
2023-05-12T05:04:07.815Z,4.95
2023-05-12T05:06:34.582Z,4.80
2023-05-12T05:09:01.297Z,4.63
2023-05-12T05:11:28.039Z,5.00
2023-05-12T05:13:54.756Z,4.85
2023-05-12T05:16:21.310Z,5.00
2023-05-12T05:18:47.896Z,4.70
2023-05-12T05:21:15.116Z,4.90
2023-05-12T05:23:42.173Z,5.13
2023-05-12T05:26:09.159Z,5.15
2023-05-12T05:31:02.743Z,5.00
2023-05-12T05:33:29.238Z,4.85
2023-05-12T05:35:55.983Z,4.50
2023-05-12T05:38:22.798Z,4.93
2023-05-12T05:40:53.466Z,4.60
2023-05-12T05:43:21.177Z,4.90
2023-05-12T05:45:47.842Z,4.97
2023-05-12T05:48:14.723Z,5.07
2023-05-12T05:50:41.214Z,4.18
2023-05-12T05:53:07.770Z,5.18
2023-05-12T05:55:35.733Z,4.72
2023-05-12T05:58:03.676Z,4.50
2023-05-12T06:00:30.459Z,4.53
2023-05-12T06:02:57.324Z,4.65
2023-05-12T06:05:24.162Z,4.43
2023-05-12T06:07:51.017Z,4.75
2023-05-12T06:10:17.592Z,4.97
2023-05-12T06:12:44.670Z,4.57
2023-05-12T06:17:38.668Z,4.80
2023-05-12T06:20:08.834Z,5.80
2023-05-12T06:22:36.575Z,4.15
2023-05-12T06:25:03.359Z,4.57
2023-05-12T06:27:30.092Z,4.82
2023-05-12T06:29:58.361Z,5.10
2023-05-12T06:32:24.924Z,4.70
2023-05-12T06:34:52.396Z,4.53
2023-05-12T06:37:19.073Z,5.25
2023-05-12T06:39:45.509Z,4.47
2023-05-12T06:42:12.322Z,4.90
2023-05-12T06:44:41.763Z,4.35
2023-05-12T06:47:09.305Z,4.18
2023-05-12T06:49:35.851Z,5.22
2023-05-12T06:52:03.382Z,5.13
2023-05-12T06:54:30.184Z,4.82
2023-05-12T06:56:56.952Z,5.47
2023-05-12T06:59:23.967Z,4.70
2023-05-12T07:04:17.277Z,4.20
2023-05-12T07:06:43.774Z,4.82
2023-05-12T07:09:10.334Z,5.40
2023-05-12T07:11:38.239Z,5.63
2023-05-12T07:14:04.990Z,4.45
2023-05-12T07:16:31.792Z,4.35
2023-05-12T07:18:58.287Z,4.90
2023-05-12T07:21:25.055Z,4.75
2023-05-12T07:23:51.867Z,4.78
2023-05-12T07:26:19.079Z,5.40
2023-05-12T07:28:45.562Z,4.55
2023-05-12T07:31:12.302Z,4.32
2023-05-12T07:33:39.002Z,3.80
2023-05-12T07:36:06.048Z,3.75
2023-05-12T07:41:00.492Z,4.50
2023-05-12T07:43:27.580Z,4.28
2023-05-12T07:45:55.889Z,4.35
2023-05-12T07:48:23.908Z,4.38
2023-05-12T07:50:50.383Z,4.68
2023-05-12T07:53:16.813Z,4.03
2023-05-12T07:55:43.554Z,4.15
2023-05-12T07:58:10.330Z,4.13
2023-05-12T08:00:37.135Z,4.22
2023-05-12T08:03:04.834Z,3.90
2023-05-12T08:05:32.121Z,5.30
2023-05-12T08:07:58.602Z,4.20
2023-05-12T08:10:25.608Z,4.43
2023-05-12T08:12:52.395Z,3.92
2023-05-12T08:17:45.715Z,3.20
2023-05-12T08:20:12.287Z,3.88
2023-05-12T08:22:39.030Z,3.50
2023-05-12T08:25:05.958Z,4.22
2023-05-12T08:27:32.477Z,4.45
2023-05-12T08:29:59.205Z,3.88
2023-05-12T08:34:52.779Z,4.15
2023-05-12T08:37:19.542Z,3.83
2023-05-12T08:39:46.340Z,3.92
2023-05-12T08:42:27.527Z,3.75
2023-05-12T08:44:54.323Z,3.83
2023-05-12T08:47:22.235Z,3.45
2023-05-12T08:50:03.674Z,3.72
2023-05-12T08:52:33.178Z,3.70
2023-05-12T08:55:01.075Z,3.83
2023-05-12T08:57:30.133Z,3.38
2023-05-12T08:59:57.800Z,3.70
2023-05-12T09:02:24.691Z,3.53
2023-05-12T09:04:52.601Z,4.13
2023-05-12T09:07:19.820Z,3.80
2023-05-12T09:09:48.799Z,3.78
2023-05-12T09:12:18.465Z,3.95
2023-05-12T09:14:46.432Z,3.58
2023-05-12T09:17:13.730Z,3.60
2023-05-12T09:19:40.251Z,4.00
2023-05-12T09:22:06.960Z,3.47
2023-05-12T09:27:03.928Z,3.88
2023-05-12T09:29:34.352Z,3.20
2023-05-12T09:32:06.490Z,3.47
2023-05-12T09:34:35.195Z,3.30
2023-05-12T09:37:05.159Z,3.40
2023-05-12T09:39:31.988Z,3.35
2023-05-12T09:42:02.310Z,3.75
2023-05-12T09:44:32.930Z,4.00
2023-05-12T09:47:08.690Z,3.17
2023-05-12T09:49:35.406Z,3.25
2023-05-12T09:54:32.500Z,3.47
2023-05-12T09:57:02.009Z,3.55
2023-05-12T09:59:31.787Z,3.63
2023-05-12T10:02:05.631Z,3.20
2023-05-12T10:04:58.296Z,3.50
2023-05-12T10:07:27.958Z,3.78
2023-05-12T10:10:01.312Z,3.55
2023-05-12T10:12:28.969Z,3.17
2023-05-12T10:14:56.675Z,3.42
2023-05-12T10:17:25.568Z,3.22
2023-05-12T10:19:53.118Z,3.22
2023-05-12T10:22:20.181Z,3.20
2023-05-12T10:24:48.961Z,3.20
2023-05-12T10:27:16.498Z,3.38
2023-05-12T10:29:45.535Z,4.25
2023-05-12T10:32:13.421Z,3.05
2023-05-12T10:34:41.134Z,3.35
2023-05-12T10:37:11.702Z,3.45
2023-05-12T10:39:48.022Z,3.60
2023-05-12T10:42:21.460Z,3.42
2023-05-12T10:44:53.146Z,2.92
2023-05-12T10:47:24.628Z,3.40
2023-05-12T10:49:56.588Z,3.75
2023-05-12T10:52:23.303Z,3.33
2023-05-12T10:57:21.588Z,3.28
2023-05-12T10:59:56.934Z,3.25
2023-05-12T11:02:27.551Z,3.35
2023-05-12T11:04:57.961Z,3.28
2023-05-12T11:07:30.672Z,3.40
2023-05-12T11:10:01.472Z,3.10
2023-05-12T11:12:31.523Z,3.40
2023-05-12T11:15:01.688Z,3.50
2023-05-12T11:17:28.666Z,3.70
2023-05-12T11:19:55.292Z,3.10
2023-05-12T11:22:23.704Z,3.47
2023-05-12T11:24:52.185Z,3.85
2023-05-12T11:27:20.715Z,3.40
2023-05-12T11:29:57.843Z,4.00
2023-05-12T11:32:24.461Z,3.78
2023-05-12T11:37:17.323Z,3.75
2023-05-12T11:39:43.897Z,4.07
2023-05-12T11:42:13.421Z,4.00
2023-05-12T11:44:48.700Z,3.75
2023-05-12T11:47:16.619Z,3.67
2023-05-12T11:49:46.268Z,3.80
2023-05-12T11:52:12.879Z,3.85
2023-05-12T11:54:39.587Z,3.70
2023-05-12T11:59:34.891Z,2.92
2023-05-12T12:02:03.510Z,3.50
2023-05-12T12:04:34.359Z,3.40
2023-05-12T12:07:01.517Z,3.40
2023-05-12T12:09:39.308Z,3.30
2023-05-12T12:12:07.481Z,3.33
2023-05-12T12:14:36.383Z,3.50
2023-05-12T12:17:03.116Z,3.72
2023-05-12T12:19:29.832Z,3.60
2023-05-12T12:21:58.066Z,3.65
2023-05-12T12:24:25.320Z,3.28
2023-05-12T12:26:52.974Z,3.40
2023-05-12T12:29:19.438Z,3.28
2023-05-12T12:31:46.597Z,3.42
2023-05-12T12:34:13.579Z,3.38
2023-05-12T12:36:40.030Z,3.22
2023-05-12T12:39:07.690Z,2.97
2023-05-12T12:41:34.384Z,3.20
2023-05-12T12:44:01.323Z,3.25
2023-05-12T12:46:28.161Z,3.75
2023-05-12T12:48:54.837Z,3.22
2023-05-12T12:53:47.794Z,3.33
2023-05-12T12:56:14.516Z,3.55
2023-05-12T12:58:42.379Z,3.47
2023-05-12T13:01:09.178Z,3.28
2023-05-12T13:03:36.018Z,3.47
2023-05-12T13:06:02.822Z,3.10
2023-05-12T13:08:29.574Z,2.78
2023-05-12T13:10:56.510Z,3.58
2023-05-12T13:13:23.140Z,3.15
2023-05-12T13:18:16.413Z,3.08
2023-05-12T13:23:10.687Z,3.25
2023-05-12T13:25:37.176Z,3.05
2023-05-12T13:28:03.745Z,3.20
2023-05-12T13:30:30.523Z,3.10
2023-05-12T13:32:57.228Z,3.17
2023-05-12T13:35:23.799Z,3.33
2023-05-12T13:40:16.877Z,3.35
2023-05-12T13:45:11.562Z,3.22
2023-05-12T13:47:38.362Z,2.75
2023-05-12T13:50:06.368Z,2.83
2023-05-12T13:52:32.948Z,3.30
2023-05-12T13:55:00.203Z,3.08
2023-05-12T13:57:27.069Z,2.90
2023-05-12T13:59:56.554Z,3.30
2023-05-12T14:02:25.690Z,3.53
2023-05-12T14:04:55.722Z,2.80
2023-05-12T14:07:25.793Z,2.85
2023-05-12T14:09:52.312Z,3.53
2023-05-12T14:12:19.413Z,3.25
2023-05-12T14:14:46.713Z,3.33
2023-05-12T14:17:13.252Z,3.20
2023-05-12T14:19:39.985Z,2.63
2023-05-12T14:25:04.755Z,2.70
2023-05-12T14:27:31.355Z,3.10
2023-05-12T14:29:58.120Z,2.85
2023-05-12T14:32:24.814Z,3.63
2023-05-12T14:37:17.760Z,3.33
2023-05-12T14:39:45.637Z,2.80
2023-05-12T14:42:12.129Z,2.97
2023-05-12T14:44:38.646Z,3.13
2023-05-12T14:47:07.532Z,3.40
2023-05-12T14:49:35.767Z,3.08
2023-05-12T14:52:02.831Z,2.92
2023-05-12T14:54:29.743Z,4.40
2023-05-12T14:56:56.312Z,4.07
2023-05-12T14:59:22.895Z,4.90
2023-05-12T15:01:50.062Z,3.13
2023-05-12T15:04:16.945Z,3.10
2023-05-12T15:09:10.148Z,3.30
2023-05-12T15:11:36.782Z,3.22
2023-05-12T15:14:03.743Z,3.33
2023-05-12T15:16:30.419Z,2.97
2023-05-12T15:21:23.592Z,3.50
2023-05-12T15:23:50.176Z,3.08
2023-05-12T15:26:31.825Z,3.00
2023-05-12T15:29:00.694Z,2.80
2023-05-12T15:31:29.526Z,3.20
2023-05-12T15:33:57.279Z,3.05
2023-05-12T15:36:24.156Z,3.20
2023-05-12T15:38:52.434Z,3.13
2023-05-12T15:41:19.121Z,2.90
2023-05-12T15:43:45.872Z,3.20
2023-05-12T15:48:39.000Z,3.13
2023-05-12T15:51:05.798Z,2.85
2023-05-12T15:56:02.050Z,3.08
2023-05-12T15:58:28.862Z,2.90
2023-05-12T16:00:56.159Z,2.75
2023-05-12T16:03:23.307Z,2.97
2023-05-12T16:05:49.955Z,3.08
2023-05-12T16:08:17.031Z,3.05
2023-05-12T16:10:44.260Z,3.10
2023-05-12T16:13:11.058Z,2.60
2023-05-12T16:18:04.330Z,2.78
2023-05-12T16:20:30.883Z,3.20
2023-05-12T16:22:58.552Z,2.75
2023-05-12T16:25:25.073Z,3.55
2023-05-12T16:27:52.746Z,3.00
2023-05-12T16:30:20.358Z,3.03
2023-05-12T16:32:47.400Z,2.60
2023-05-12T16:35:14.512Z,2.85
2023-05-12T16:37:41.375Z,2.90
2023-05-12T16:40:08.992Z,6.57
2023-05-12T16:42:35.472Z,2.80
2023-05-12T16:45:02.287Z,2.65
2023-05-12T16:49:55.718Z,2.88
2023-05-12T16:52:22.515Z,2.90
2023-05-12T16:57:15.343Z,2.75
2023-05-12T16:59:42.129Z,2.92
2023-05-12T17:02:08.961Z,2.90
2023-05-12T17:07:02.454Z,3.00
2023-05-12T17:09:29.329Z,3.00
2023-05-12T17:14:22.519Z,3.15
2023-05-12T17:16:48.935Z,3.00
2023-05-12T17:19:15.510Z,2.75
2023-05-12T17:21:42.213Z,2.97
2023-05-12T17:24:09.015Z,3.40
2023-05-12T17:26:35.587Z,2.95
2023-05-12T17:29:02.589Z,3.03
2023-05-12T17:31:29.332Z,3.03
2023-05-12T17:36:22.357Z,3.55
2023-05-12T17:38:50.848Z,2.85
2023-05-12T17:41:18.480Z,2.83
2023-05-12T17:43:45.253Z,3.97
2023-05-12T17:46:12.222Z,2.80
2023-05-12T17:48:39.026Z,3.30
2023-05-12T17:53:33.193Z,3.30
2023-05-12T17:56:00.357Z,2.80
2023-05-12T17:58:27.432Z,3.17
2023-05-12T18:00:54.453Z,3.05
2023-05-12T18:03:21.319Z,3.05
2023-05-12T18:08:16.259Z,3.03
2023-05-12T18:10:43.384Z,3.17
2023-05-12T18:13:10.762Z,3.05
2023-05-12T18:15:37.912Z,3.22
2023-05-12T18:18:05.044Z,3.00
2023-05-12T18:20:35.672Z,3.92
2023-05-12T18:23:02.414Z,3.20
2023-05-12T18:25:29.011Z,2.88
2023-05-12T18:27:55.876Z,3.03
2023-05-12T18:32:54.114Z,2.78
2023-05-12T18:35:20.900Z,3.47
2023-05-12T18:40:14.217Z,4.75
2023-05-12T18:42:41.269Z,4.63
2023-05-12T18:45:08.476Z,4.35
2023-05-12T18:47:35.330Z,4.10
2023-05-12T18:50:02.068Z,3.65
2023-05-12T18:52:28.833Z,3.63
2023-05-12T18:57:24.864Z,3.15
2023-05-12T18:59:51.754Z,3.17
2023-05-12T19:04:45.094Z,3.83
2023-05-12T19:07:12.222Z,3.80
2023-05-12T19:09:38.855Z,3.00
2023-05-12T19:12:06.188Z,3.38
2023-05-12T19:14:32.998Z,3.80
2023-05-12T19:19:28.531Z,3.72
2023-05-12T19:21:56.145Z,3.13
2023-05-12T19:24:25.945Z,3.40
2023-05-12T19:26:53.091Z,3.45
2023-05-12T19:29:19.688Z,3.75
2023-05-12T19:31:46.565Z,3.38
2023-05-12T19:36:39.979Z,4.00
2023-05-12T19:39:06.644Z,4.50
2023-05-12T19:41:39.371Z,4.32
2023-05-12T19:44:06.022Z,4.47
2023-05-12T19:46:33.045Z,4.22
2023-05-12T19:49:00.298Z,4.30
2023-05-12T19:51:27.092Z,4.60
2023-05-12T19:53:53.684Z,4.55
2023-05-12T19:56:20.670Z,4.35
2023-05-12T19:58:47.230Z,4.22
2023-05-12T20:01:13.939Z,4.22
2023-05-12T20:03:41.723Z,4.00
2023-05-12T20:06:10.300Z,4.07
2023-05-12T20:08:37.109Z,3.78
2023-05-12T20:11:03.866Z,4.07
2023-05-12T20:13:31.592Z,4.47
2023-05-12T20:16:00.747Z,4.55
2023-05-12T20:18:27.369Z,4.65
2023-05-12T20:20:54.446Z,4.47
2023-05-12T20:23:21.434Z,4.03
2023-05-12T20:25:48.033Z,3.95
2023-05-12T20:28:14.633Z,4.30
2023-05-12T20:30:41.355Z,4.47
2023-05-12T20:33:08.230Z,4.60
2023-05-12T20:38:01.347Z,4.35
2023-05-12T20:40:28.864Z,4.88
2023-05-12T20:42:55.667Z,4.50
2023-05-12T20:45:23.274Z,4.82
2023-05-12T20:47:50.233Z,4.13
2023-05-12T20:50:16.775Z,4.03
2023-05-12T20:52:43.361Z,4.22
2023-05-12T20:55:10.048Z,4.10
2023-05-12T20:57:36.848Z,4.05
2023-05-12T21:00:03.579Z,4.22
2023-05-12T21:02:30.522Z,3.92
2023-05-12T21:04:57.373Z,3.78
2023-05-12T21:07:24.196Z,4.38
2023-05-12T21:09:50.817Z,3.55
2023-05-12T21:12:17.226Z,3.65
2023-05-12T21:14:45.233Z,3.80
2023-05-12T21:17:12.331Z,3.95
2023-05-12T21:19:40.268Z,4.07
2023-05-12T21:22:07.958Z,4.38
2023-05-12T21:24:35.186Z,4.43
2023-05-12T21:27:02.099Z,4.50
2023-05-12T21:31:57.335Z,4.25
2023-05-12T21:34:24.318Z,3.70
2023-05-12T21:36:50.838Z,3.60
2023-05-12T21:39:17.425Z,3.60
2023-05-12T21:41:44.503Z,4.32
2023-05-12T21:44:11.565Z,4.03
2023-05-12T21:46:38.623Z,4.18
2023-05-12T21:49:05.229Z,3.70
2023-05-12T21:51:32.005Z,3.95
2023-05-12T21:53:59.894Z,3.65
2023-05-12T21:56:26.685Z,3.72
2023-05-12T21:58:53.440Z,3.97
2023-05-12T22:01:20.182Z,4.03
2023-05-12T22:03:47.130Z,3.80
2023-05-12T22:08:40.451Z,3.85
2023-05-12T22:11:07.222Z,4.18
2023-05-12T22:13:33.770Z,4.03
2023-05-12T22:16:00.555Z,4.78
2023-05-12T22:18:27.127Z,4.00
2023-05-12T22:20:53.732Z,4.95
2023-05-12T22:23:20.451Z,4.18
2023-05-12T22:25:47.156Z,4.00
2023-05-12T22:28:13.876Z,4.85
2023-05-12T22:30:40.426Z,3.80
2023-05-12T22:33:07.231Z,4.50
2023-05-12T22:35:33.925Z,3.72
2023-05-12T22:38:00.768Z,4.13
2023-05-12T22:40:27.599Z,3.90
2023-05-12T22:42:56.280Z,3.85
2023-05-12T22:45:23.053Z,4.00
2023-05-12T22:47:49.999Z,4.13
2023-05-12T22:52:43.185Z,3.70
2023-05-12T22:55:10.346Z,4.40
2023-05-12T22:57:37.092Z,3.85
2023-05-12T23:00:05.788Z,4.22
2023-05-12T23:02:32.618Z,4.28
2023-05-12T23:04:59.516Z,4.20
2023-05-12T23:07:26.566Z,4.05
2023-05-12T23:12:19.883Z,4.20
2023-05-12T23:14:46.406Z,4.10
2023-05-12T23:17:13.136Z,4.25
2023-05-12T23:19:39.826Z,3.72
2023-05-12T23:22:06.863Z,4.35
2023-05-12T23:26:59.710Z,3.67
2023-05-12T23:29:26.177Z,4.55
2023-05-12T23:31:52.758Z,4.03
2023-05-12T23:34:19.290Z,3.90
2023-05-12T23:36:45.909Z,4.38
2023-05-12T23:39:12.831Z,4.07
2023-05-12T23:41:39.651Z,3.85
2023-05-12T23:44:06.256Z,4.15
2023-05-12T23:46:32.849Z,4.07
2023-05-12T23:49:00.622Z,4.20
2023-05-12T23:51:27.839Z,4.10
2023-05-12T23:53:54.432Z,3.88
2023-05-12T23:56:21.512Z,3.97
2023-05-12T23:58:48.084Z,4.40
